sensor_id;sensor_type;location;lat;lon;timestamp;temperature;humidity
15596;DHT22;7898;48.658;9.068;2022-10-31T00:01:47;9.70;99.90
15596;DHT22;7898;48.658;9.068;2022-10-31T00:04:14;9.60;99.90
15596;DHT22;7898;48.658;9.068;2022-10-31T00:06:41;9.60;99.90
15596;DHT22;7898;48.658;9.068;2022-10-31T00:09:09;9.60;99.90
15596;DHT22;7898;48.658;9.068;2022-10-31T00:11:36;9.60;99.90
15596;DHT22;7898;48.658;9.068;2022-10-31T00:14:03;9.60;99.90
15596;DHT22;7898;48.658;9.068;2022-10-31T00:16:30;9.60;99.90
15596;DHT22;7898;48.658;9.068;2022-10-31T00:18:59;9.60;99.90
15596;DHT22;7898;48.658;9.068;2022-10-31T00:21:29;9.60;99.90
15596;DHT22;7898;48.658;9.068;2022-10-31T00:23:56;9.50;99.90
15596;DHT22;7898;48.658;9.068;2022-10-31T00:26:24;9.40;99.90
15596;DHT22;7898;48.658;9.068;2022-10-31T00:28:51;9.50;99.90
15596;DHT22;7898;48.658;9.068;2022-10-31T00:31:18;9.40;99.90
15596;DHT22;7898;48.658;9.068;2022-10-31T00:33:45;9.30;99.90
15596;DHT22;7898;48.658;9.068;2022-10-31T00:36:14;9.30;99.90
15596;DHT22;7898;48.658;9.068;2022-10-31T00:38:42;9.20;99.90
15596;DHT22;7898;48.658;9.068;2022-10-31T00:41:10;9.20;99.90
15596;DHT22;7898;48.658;9.068;2022-10-31T00:43:37;9.10;99.90
15596;DHT22;7898;48.658;9.068;2022-10-31T00:46:04;9.10;99.90
15596;DHT22;7898;48.658;9.068;2022-10-31T00:48:31;9.20;99.90
15596;DHT22;7898;48.658;9.068;2022-10-31T00:50:58;9.20;99.90
15596;DHT22;7898;48.658;9.068;2022-10-31T00:53:26;9.20;99.90
15596;DHT22;7898;48.658;9.068;2022-10-31T00:55:53;9.20;99.90
15596;DHT22;7898;48.658;9.068;2022-10-31T00:58:20;9.20;99.90
15596;DHT22;7898;48.658;9.068;2022-10-31T01:00:48;9.20;99.90
15596;DHT22;7898;48.658;9.068;2022-10-31T01:03:20;9.20;99.90
15596;DHT22;7898;48.658;9.068;2022-10-31T01:05:58;9.20;99.90
15596;DHT22;7898;48.658;9.068;2022-10-31T01:08:27;9.20;99.90
15596;DHT22;7898;48.658;9.068;2022-10-31T01:11:01;9.10;99.90
15596;DHT22;7898;48.658;9.068;2022-10-31T01:13:28;9.10;99.90
15596;DHT22;7898;48.658;9.068;2022-10-31T01:15:55;9.10;99.90
15596;DHT22;7898;48.658;9.068;2022-10-31T01:18:23;9.00;99.90
15596;DHT22;7898;48.658;9.068;2022-10-31T01:20:57;9.00;99.90
15596;DHT22;7898;48.658;9.068;2022-10-31T01:23:26;9.00;99.90
15596;DHT22;7898;48.658;9.068;2022-10-31T01:26:05;9.00;99.90
15596;DHT22;7898;48.658;9.068;2022-10-31T01:28:32;9.00;99.90
15596;DHT22;7898;48.658;9.068;2022-10-31T01:31:04;9.00;99.90
15596;DHT22;7898;48.658;9.068;2022-10-31T01:33:32;8.90;99.90
15596;DHT22;7898;48.658;9.068;2022-10-31T01:35:59;8.90;99.90
15596;DHT22;7898;48.658;9.068;2022-10-31T01:38:27;8.90;99.90
15596;DHT22;7898;48.658;9.068;2022-10-31T01:40:54;8.90;99.90
15596;DHT22;7898;48.658;9.068;2022-10-31T01:43:21;9.00;99.90
15596;DHT22;7898;48.658;9.068;2022-10-31T01:45:51;9.00;99.90
15596;DHT22;7898;48.658;9.068;2022-10-31T01:48:20;8.90;99.90
15596;DHT22;7898;48.658;9.068;2022-10-31T01:50:50;8.90;99.90
15596;DHT22;7898;48.658;9.068;2022-10-31T01:53:18;9.00;99.90
15596;DHT22;7898;48.658;9.068;2022-10-31T01:55:47;8.90;99.90
15596;DHT22;7898;48.658;9.068;2022-10-31T01:58:18;8.90;99.90
15596;DHT22;7898;48.658;9.068;2022-10-31T02:00:48;8.80;99.90
15596;DHT22;7898;48.658;9.068;2022-10-31T02:03:17;8.80;99.90
15596;DHT22;7898;48.658;9.068;2022-10-31T02:05:45;8.80;99.90
15596;DHT22;7898;48.658;9.068;2022-10-31T02:08:15;8.90;99.90
15596;DHT22;7898;48.658;9.068;2022-10-31T02:10:44;9.00;99.90
15596;DHT22;7898;48.658;9.068;2022-10-31T02:13:12;9.00;99.90
15596;DHT22;7898;48.658;9.068;2022-10-31T02:15:40;9.00;99.90
15596;DHT22;7898;48.658;9.068;2022-10-31T02:18:09;8.90;99.90
15596;DHT22;7898;48.658;9.068;2022-10-31T02:20:42;8.90;99.90
15596;DHT22;7898;48.658;9.068;2022-10-31T02:29:50;8.70;99.90
15596;DHT22;7898;48.658;9.068;2022-10-31T02:32:27;8.70;99.90
15596;DHT22;7898;48.658;9.068;2022-10-31T02:34:58;8.80;99.90
15596;DHT22;7898;48.658;9.068;2022-10-31T02:37:34;8.80;99.90
15596;DHT22;7898;48.658;9.068;2022-10-31T02:40:09;8.70;99.90
15596;DHT22;7898;48.658;9.068;2022-10-31T02:42:41;8.70;99.90
15596;DHT22;7898;48.658;9.068;2022-10-31T02:45:14;8.70;99.90
15596;DHT22;7898;48.658;9.068;2022-10-31T02:47:46;8.60;99.90
15596;DHT22;7898;48.658;9.068;2022-10-31T02:50:20;8.60;99.90
15596;DHT22;7898;48.658;9.068;2022-10-31T02:52:50;8.60;99.90
15596;DHT22;7898;48.658;9.068;2022-10-31T02:55:54;8.50;99.90
15596;DHT22;7898;48.658;9.068;2022-10-31T02:58:25;8.50;99.90
15596;DHT22;7898;48.658;9.068;2022-10-31T03:01:10;8.60;99.90
15596;DHT22;7898;48.658;9.068;2022-10-31T03:03:49;8.60;99.90
15596;DHT22;7898;48.658;9.068;2022-10-31T03:06:20;8.60;99.90
15596;DHT22;7898;48.658;9.068;2022-10-31T03:08:54;8.60;99.90
15596;DHT22;7898;48.658;9.068;2022-10-31T03:11:26;8.40;99.90
15596;DHT22;7898;48.658;9.068;2022-10-31T03:14:00;8.40;99.90
15596;DHT22;7898;48.658;9.068;2022-10-31T03:16:37;8.40;99.90
15596;DHT22;7898;48.658;9.068;2022-10-31T03:19:09;8.40;99.90
15596;DHT22;7898;48.658;9.068;2022-10-31T03:21:41;8.40;99.90
15596;DHT22;7898;48.658;9.068;2022-10-31T03:24:10;8.40;99.90
15596;DHT22;7898;48.658;9.068;2022-10-31T03:26:41;8.30;99.90
15596;DHT22;7898;48.658;9.068;2022-10-31T03:29:10;8.30;99.90
15596;DHT22;7898;48.658;9.068;2022-10-31T03:31:40;8.30;99.90
15596;DHT22;7898;48.658;9.068;2022-10-31T03:34:12;8.00;99.90
15596;DHT22;7898;48.658;9.068;2022-10-31T03:36:41;8.20;99.90
15596;DHT22;7898;48.658;9.068;2022-10-31T03:39:11;8.30;99.90
15596;DHT22;7898;48.658;9.068;2022-10-31T03:41:41;8.30;99.90
15596;DHT22;7898;48.658;9.068;2022-10-31T03:44:13;8.20;99.90
15596;DHT22;7898;48.658;9.068;2022-10-31T03:46:40;8.20;99.90
15596;DHT22;7898;48.658;9.068;2022-10-31T03:49:08;8.20;99.90
15596;DHT22;7898;48.658;9.068;2022-10-31T03:51:41;8.20;99.90
15596;DHT22;7898;48.658;9.068;2022-10-31T03:54:13;8.20;99.90
15596;DHT22;7898;48.658;9.068;2022-10-31T03:56:47;8.20;99.90
15596;DHT22;7898;48.658;9.068;2022-10-31T03:59:19;8.10;99.90
15596;DHT22;7898;48.658;9.068;2022-10-31T04:01:50;8.10;99.90
15596;DHT22;7898;48.658;9.068;2022-10-31T04:04:19;8.10;99.90
15596;DHT22;7898;48.658;9.068;2022-10-31T04:06:48;8.10;99.90
15596;DHT22;7898;48.658;9.068;2022-10-31T04:09:16;8.20;99.90
15596;DHT22;7898;48.658;9.068;2022-10-31T04:11:48;8.10;99.90
15596;DHT22;7898;48.658;9.068;2022-10-31T04:14:15;8.10;99.90
15596;DHT22;7898;48.658;9.068;2022-10-31T04:16:43;8.10;99.90
15596;DHT22;7898;48.658;9.068;2022-10-31T04:19:11;8.10;99.90
15596;DHT22;7898;48.658;9.068;2022-10-31T04:21:38;8.20;99.90
15596;DHT22;7898;48.658;9.068;2022-10-31T04:24:07;8.10;99.90
15596;DHT22;7898;48.658;9.068;2022-10-31T04:26:34;7.50;99.90
15596;DHT22;7898;48.658;9.068;2022-10-31T04:29:01;8.10;99.90
15596;DHT22;7898;48.658;9.068;2022-10-31T04:31:27;8.00;99.90
15596;DHT22;7898;48.658;9.068;2022-10-31T04:33:54;8.00;99.90
15596;DHT22;7898;48.658;9.068;2022-10-31T04:36:21;8.10;99.90
15596;DHT22;7898;48.658;9.068;2022-10-31T04:38:48;8.10;99.90
15596;DHT22;7898;48.658;9.068;2022-10-31T04:41:16;8.00;99.90
15596;DHT22;7898;48.658;9.068;2022-10-31T04:43:43;7.90;99.90
15596;DHT22;7898;48.658;9.068;2022-10-31T04:46:10;7.90;99.90
15596;DHT22;7898;48.658;9.068;2022-10-31T04:48:37;7.80;99.90
15596;DHT22;7898;48.658;9.068;2022-10-31T04:51:04;7.80;99.90
15596;DHT22;7898;48.658;9.068;2022-10-31T04:53:31;7.30;99.90
15596;DHT22;7898;48.658;9.068;2022-10-31T04:55:58;7.70;99.90
15596;DHT22;7898;48.658;9.068;2022-10-31T04:58:27;7.60;99.90
15596;DHT22;7898;48.658;9.068;2022-10-31T05:00:55;7.70;99.90
15596;DHT22;7898;48.658;9.068;2022-10-31T05:03:22;7.70;99.90
15596;DHT22;7898;48.658;9.068;2022-10-31T05:05:49;7.70;99.90
15596;DHT22;7898;48.658;9.068;2022-10-31T05:08:15;7.70;99.90
15596;DHT22;7898;48.658;9.068;2022-10-31T05:10:42;7.80;99.90
15596;DHT22;7898;48.658;9.068;2022-10-31T05:13:09;7.70;99.90
15596;DHT22;7898;48.658;9.068;2022-10-31T05:15:37;7.70;99.90
15596;DHT22;7898;48.658;9.068;2022-10-31T05:18:04;7.70;99.90
15596;DHT22;7898;48.658;9.068;2022-10-31T05:20:31;7.60;99.90
15596;DHT22;7898;48.658;9.068;2022-10-31T05:22:58;7.60;99.90
15596;DHT22;7898;48.658;9.068;2022-10-31T05:25:27;7.60;99.90
15596;DHT22;7898;48.658;9.068;2022-10-31T05:27:56;7.60;99.90
15596;DHT22;7898;48.658;9.068;2022-10-31T05:30:24;7.60;99.90
15596;DHT22;7898;48.658;9.068;2022-10-31T05:32:54;7.60;99.90
15596;DHT22;7898;48.658;9.068;2022-10-31T05:35:22;7.60;99.90
15596;DHT22;7898;48.658;9.068;2022-10-31T05:37:49;7.50;99.90
15596;DHT22;7898;48.658;9.068;2022-10-31T05:40:17;7.50;99.90
15596;DHT22;7898;48.658;9.068;2022-10-31T05:42:45;7.40;99.90
15596;DHT22;7898;48.658;9.068;2022-10-31T05:45:14;7.40;99.90
15596;DHT22;7898;48.658;9.068;2022-10-31T05:47:41;7.40;99.90
15596;DHT22;7898;48.658;9.068;2022-10-31T05:50:09;7.40;99.90
15596;DHT22;7898;48.658;9.068;2022-10-31T05:52:36;7.40;99.90
15596;DHT22;7898;48.658;9.068;2022-10-31T05:55:04;7.40;99.90
15596;DHT22;7898;48.658;9.068;2022-10-31T05:57:33;7.40;99.90
15596;DHT22;7898;48.658;9.068;2022-10-31T06:00:00;7.50;99.90
15596;DHT22;7898;48.658;9.068;2022-10-31T06:02:27;7.60;99.90
15596;DHT22;7898;48.658;9.068;2022-10-31T06:04:57;7.60;99.90
15596;DHT22;7898;48.658;9.068;2022-10-31T06:07:26;7.50;99.90
15596;DHT22;7898;48.658;9.068;2022-10-31T06:09:53;7.50;99.90
15596;DHT22;7898;48.658;9.068;2022-10-31T06:12:19;7.50;99.90
15596;DHT22;7898;48.658;9.068;2022-10-31T06:14:46;7.60;99.90
15596;DHT22;7898;48.658;9.068;2022-10-31T06:17:13;7.60;99.90
15596;DHT22;7898;48.658;9.068;2022-10-31T06:19:40;7.70;99.90
15596;DHT22;7898;48.658;9.068;2022-10-31T06:22:07;7.80;99.90
15596;DHT22;7898;48.658;9.068;2022-10-31T06:24:37;7.80;99.90
15596;DHT22;7898;48.658;9.068;2022-10-31T06:27:05;7.90;99.90
15596;DHT22;7898;48.658;9.068;2022-10-31T06:29:32;8.00;99.90
15596;DHT22;7898;48.658;9.068;2022-10-31T06:31:58;8.20;99.90
15596;DHT22;7898;48.658;9.068;2022-10-31T06:34:25;8.30;99.90
15596;DHT22;7898;48.658;9.068;2022-10-31T06:36:52;8.60;99.90
15596;DHT22;7898;48.658;9.068;2022-10-31T06:39:19;8.90;99.90
15596;DHT22;7898;48.658;9.068;2022-10-31T06:41:48;9.30;99.90
15596;DHT22;7898;48.658;9.068;2022-10-31T06:44:15;9.70;99.90
15596;DHT22;7898;48.658;9.068;2022-10-31T06:46:42;10.00;99.90
15596;DHT22;7898;48.658;9.068;2022-10-31T06:49:09;10.30;99.90
15596;DHT22;7898;48.658;9.068;2022-10-31T06:51:35;10.70;99.90
15596;DHT22;7898;48.658;9.068;2022-10-31T06:54:02;10.90;99.90
15596;DHT22;7898;48.658;9.068;2022-10-31T06:56:29;11.00;99.90
15596;DHT22;7898;48.658;9.068;2022-10-31T06:58:58;11.10;99.90
15596;DHT22;7898;48.658;9.068;2022-10-31T07:01:24;11.00;99.90
15596;DHT22;7898;48.658;9.068;2022-10-31T07:03:51;10.90;99.90
15596;DHT22;7898;48.658;9.068;2022-10-31T07:06:18;10.80;99.90
15596;DHT22;7898;48.658;9.068;2022-10-31T07:08:45;10.70;99.90
15596;DHT22;7898;48.658;9.068;2022-10-31T07:11:12;10.70;99.90
15596;DHT22;7898;48.658;9.068;2022-10-31T07:13:39;10.70;99.90
15596;DHT22;7898;48.658;9.068;2022-10-31T07:16:07;11.00;99.90
15596;DHT22;7898;48.658;9.068;2022-10-31T07:18:37;11.20;99.90
15596;DHT22;7898;48.658;9.068;2022-10-31T07:21:04;11.40;99.90
15596;DHT22;7898;48.658;9.068;2022-10-31T07:23:31;11.50;99.90
15596;DHT22;7898;48.658;9.068;2022-10-31T07:25:59;11.60;99.90
15596;DHT22;7898;48.658;9.068;2022-10-31T07:28:26;11.30;99.90
15596;DHT22;7898;48.658;9.068;2022-10-31T07:30:55;11.20;99.90
15596;DHT22;7898;48.658;9.068;2022-10-31T07:33:24;11.00;99.90
15596;DHT22;7898;48.658;9.068;2022-10-31T07:35:52;10.80;99.90
15596;DHT22;7898;48.658;9.068;2022-10-31T07:38:19;10.80;99.90
15596;DHT22;7898;48.658;9.068;2022-10-31T07:40:50;10.80;99.90
15596;DHT22;7898;48.658;9.068;2022-10-31T07:43:18;10.80;99.90
15596;DHT22;7898;48.658;9.068;2022-10-31T07:45:49;11.00;99.90
15596;DHT22;7898;48.658;9.068;2022-10-31T07:48:17;11.20;99.90
15596;DHT22;7898;48.658;9.068;2022-10-31T07:50:45;11.50;99.90
15596;DHT22;7898;48.658;9.068;2022-10-31T07:53:14;11.60;99.90
15596;DHT22;7898;48.658;9.068;2022-10-31T07:55:41;11.70;99.90
15596;DHT22;7898;48.658;9.068;2022-10-31T07:58:10;11.70;99.90
15596;DHT22;7898;48.658;9.068;2022-10-31T08:00:38;12.00;99.90
15596;DHT22;7898;48.658;9.068;2022-10-31T08:03:07;12.20;99.90
15596;DHT22;7898;48.658;9.068;2022-10-31T08:05:35;12.20;99.90
15596;DHT22;7898;48.658;9.068;2022-10-31T08:08:04;12.30;99.90
15596;DHT22;7898;48.658;9.068;2022-10-31T08:10:31;12.30;99.90
15596;DHT22;7898;48.658;9.068;2022-10-31T08:12:59;12.40;99.90
15596;DHT22;7898;48.658;9.068;2022-10-31T08:15:27;12.60;99.90
15596;DHT22;7898;48.658;9.068;2022-10-31T08:17:54;12.70;99.90
15596;DHT22;7898;48.658;9.068;2022-10-31T08:20:21;12.80;99.90
15596;DHT22;7898;48.658;9.068;2022-10-31T08:22:55;13.20;99.90
15596;DHT22;7898;48.658;9.068;2022-10-31T08:25:24;13.30;99.90
15596;DHT22;7898;48.658;9.068;2022-10-31T08:27:52;13.40;99.90
15596;DHT22;7898;48.658;9.068;2022-10-31T08:30:19;13.40;99.90
15596;DHT22;7898;48.658;9.068;2022-10-31T08:32:47;13.70;99.90
15596;DHT22;7898;48.658;9.068;2022-10-31T08:35:14;13.80;99.90
15596;DHT22;7898;48.658;9.068;2022-10-31T08:37:41;13.90;99.90
15596;DHT22;7898;48.658;9.068;2022-10-31T08:40:09;14.00;99.90
15596;DHT22;7898;48.658;9.068;2022-10-31T08:42:37;13.90;99.90
15596;DHT22;7898;48.658;9.068;2022-10-31T08:45:05;14.10;99.90
15596;DHT22;7898;48.658;9.068;2022-10-31T08:47:32;14.40;99.90
15596;DHT22;7898;48.658;9.068;2022-10-31T08:49:58;14.80;99.90
15596;DHT22;7898;48.658;9.068;2022-10-31T08:52:25;14.90;99.90
15596;DHT22;7898;48.658;9.068;2022-10-31T08:54:52;15.00;99.90
15596;DHT22;7898;48.658;9.068;2022-10-31T08:57:19;15.10;99.90
15596;DHT22;7898;48.658;9.068;2022-10-31T08:59:47;15.10;99.90
15596;DHT22;7898;48.658;9.068;2022-10-31T09:02:14;15.10;99.90
15596;DHT22;7898;48.658;9.068;2022-10-31T09:04:41;15.20;99.90
15596;DHT22;7898;48.658;9.068;2022-10-31T09:07:08;15.20;99.90
15596;DHT22;7898;48.658;9.068;2022-10-31T09:09:35;15.10;99.90
15596;DHT22;7898;48.658;9.068;2022-10-31T09:12:02;15.20;99.90
15596;DHT22;7898;48.658;9.068;2022-10-31T09:14:29;15.30;99.90
15596;DHT22;7898;48.658;9.068;2022-10-31T09:16:57;15.30;99.90
15596;DHT22;7898;48.658;9.068;2022-10-31T09:19:26;15.30;99.90
15596;DHT22;7898;48.658;9.068;2022-10-31T09:21:54;15.10;99.90
15596;DHT22;7898;48.658;9.068;2022-10-31T09:24:21;15.10;99.90
15596;DHT22;7898;48.658;9.068;2022-10-31T09:26:48;15.00;99.90
15596;DHT22;7898;48.658;9.068;2022-10-31T09:29:15;15.00;99.90
15596;DHT22;7898;48.658;9.068;2022-10-31T09:31:42;15.10;99.90
15596;DHT22;7898;48.658;9.068;2022-10-31T09:34:10;15.10;99.90
15596;DHT22;7898;48.658;9.068;2022-10-31T09:36:37;15.10;99.90
15596;DHT22;7898;48.658;9.068;2022-10-31T09:39:04;15.20;99.90
15596;DHT22;7898;48.658;9.068;2022-10-31T09:41:58;15.30;99.90
15596;DHT22;7898;48.658;9.068;2022-10-31T09:44:37;15.40;99.90
15596;DHT22;7898;48.658;9.068;2022-10-31T09:47:10;15.50;99.90
15596;DHT22;7898;48.658;9.068;2022-10-31T09:49:55;15.50;99.90
15596;DHT22;7898;48.658;9.068;2022-10-31T09:52:29;15.60;99.90
15596;DHT22;7898;48.658;9.068;2022-10-31T09:55:16;15.60;99.90
15596;DHT22;7898;48.658;9.068;2022-10-31T09:57:44;15.60;99.90
15596;DHT22;7898;48.658;9.068;2022-10-31T10:00:16;15.60;99.90
15596;DHT22;7898;48.658;9.068;2022-10-31T10:02:47;15.80;99.90
15596;DHT22;7898;48.658;9.068;2022-10-31T10:05:19;15.80;99.90
15596;DHT22;7898;48.658;9.068;2022-10-31T10:07:54;15.90;99.90
15596;DHT22;7898;48.658;9.068;2022-10-31T10:10:33;15.90;99.90
15596;DHT22;7898;48.658;9.068;2022-10-31T10:13:20;16.10;99.90
15596;DHT22;7898;48.658;9.068;2022-10-31T10:15:58;16.30;99.90
15596;DHT22;7898;48.658;9.068;2022-10-31T10:18:35;16.50;99.90
15596;DHT22;7898;48.658;9.068;2022-10-31T10:21:14;16.70;99.90
15596;DHT22;7898;48.658;9.068;2022-10-31T10:23:53;16.90;99.90
15596;DHT22;7898;48.658;9.068;2022-10-31T10:26:29;16.90;99.90
15596;DHT22;7898;48.658;9.068;2022-10-31T10:29:00;17.00;99.90
15596;DHT22;7898;48.658;9.068;2022-10-31T10:31:31;16.90;99.90
15596;DHT22;7898;48.658;9.068;2022-10-31T10:34:06;16.90;99.90
15596;DHT22;7898;48.658;9.068;2022-10-31T10:36:36;16.80;99.90
15596;DHT22;7898;48.658;9.068;2022-10-31T10:39:11;16.80;99.90
15596;DHT22;7898;48.658;9.068;2022-10-31T10:41:44;16.80;99.90
15596;DHT22;7898;48.658;9.068;2022-10-31T10:44:12;16.90;99.90
15596;DHT22;7898;48.658;9.068;2022-10-31T10:46:42;16.90;99.90
15596;DHT22;7898;48.658;9.068;2022-10-31T10:49:31;16.90;99.90
15596;DHT22;7898;48.658;9.068;2022-10-31T10:52:00;17.00;99.90
15596;DHT22;7898;48.658;9.068;2022-10-31T10:54:49;17.00;99.90
15596;DHT22;7898;48.658;9.068;2022-10-31T10:57:32;16.90;99.90
15596;DHT22;7898;48.658;9.068;2022-10-31T11:00:19;17.10;99.90
15596;DHT22;7898;48.658;9.068;2022-10-31T11:02:47;17.20;99.90
15596;DHT22;7898;48.658;9.068;2022-10-31T11:05:22;17.40;99.90
15596;DHT22;7898;48.658;9.068;2022-10-31T11:07:49;17.60;99.90
15596;DHT22;7898;48.658;9.068;2022-10-31T11:10:16;18.00;99.90
15596;DHT22;7898;48.658;9.068;2022-10-31T11:12:56;18.30;99.90
15596;DHT22;7898;48.658;9.068;2022-10-31T11:15:26;18.50;99.90
15596;DHT22;7898;48.658;9.068;2022-10-31T11:17:55;18.70;99.90
15596;DHT22;7898;48.658;9.068;2022-10-31T11:20:31;18.90;99.90
15596;DHT22;7898;48.658;9.068;2022-10-31T11:23:19;19.10;99.90
15596;DHT22;7898;48.658;9.068;2022-10-31T11:25:51;19.30;99.90
15596;DHT22;7898;48.658;9.068;2022-10-31T11:28:20;19.30;99.90
15596;DHT22;7898;48.658;9.068;2022-10-31T11:30:49;19.40;99.90
15596;DHT22;7898;48.658;9.068;2022-10-31T11:33:19;19.60;99.90
15596;DHT22;7898;48.658;9.068;2022-10-31T11:35:48;19.70;99.90
15596;DHT22;7898;48.658;9.068;2022-10-31T11:38:18;19.60;99.90
15596;DHT22;7898;48.658;9.068;2022-10-31T11:40:53;19.70;99.90
15596;DHT22;7898;48.658;9.068;2022-10-31T11:43:22;19.80;99.90
15596;DHT22;7898;48.658;9.068;2022-10-31T11:45:50;19.80;99.90
15596;DHT22;7898;48.658;9.068;2022-10-31T11:48:19;19.80;99.90
15596;DHT22;7898;48.658;9.068;2022-10-31T11:50:51;19.70;99.90
15596;DHT22;7898;48.658;9.068;2022-10-31T11:53:22;19.70;99.90
15596;DHT22;7898;48.658;9.068;2022-10-31T11:56:02;19.60;99.90
15596;DHT22;7898;48.658;9.068;2022-10-31T11:58:31;19.50;99.90
15596;DHT22;7898;48.658;9.068;2022-10-31T12:00:59;19.50;99.90
15596;DHT22;7898;48.658;9.068;2022-10-31T12:03:48;19.50;99.90
15596;DHT22;7898;48.658;9.068;2022-10-31T12:06:21;19.60;99.90
15596;DHT22;7898;48.658;9.068;2022-10-31T12:08:50;19.70;99.90
15596;DHT22;7898;48.658;9.068;2022-10-31T12:11:29;19.90;99.90
15596;DHT22;7898;48.658;9.068;2022-10-31T12:14:08;20.10;99.90
15596;DHT22;7898;48.658;9.068;2022-10-31T12:16:39;20.30;99.90
15596;DHT22;7898;48.658;9.068;2022-10-31T12:19:14;20.40;99.90
15596;DHT22;7898;48.658;9.068;2022-10-31T12:24:45;20.20;99.90
15596;DHT22;7898;48.658;9.068;2022-10-31T12:27:24;19.90;99.90
15596;DHT22;7898;48.658;9.068;2022-10-31T12:30:11;19.80;99.90
15596;DHT22;7898;48.658;9.068;2022-10-31T12:32:49;19.60;99.90
15596;DHT22;7898;48.658;9.068;2022-10-31T12:35:28;19.40;99.90
15596;DHT22;7898;48.658;9.068;2022-10-31T12:38:21;19.20;99.90
15596;DHT22;7898;48.658;9.068;2022-10-31T12:41:05;19.00;99.90
15596;DHT22;7898;48.658;9.068;2022-10-31T12:43:41;18.80;99.90
15596;DHT22;7898;48.658;9.068;2022-10-31T12:46:22;18.70;99.90
15596;DHT22;7898;48.658;9.068;2022-10-31T12:49:12;18.60;99.90
15596;DHT22;7898;48.658;9.068;2022-10-31T12:51:50;18.50;99.90
15596;DHT22;7898;48.658;9.068;2022-10-31T12:54:40;18.50;99.90
15596;DHT22;7898;48.658;9.068;2022-10-31T12:57:18;18.40;99.90
15596;DHT22;7898;48.658;9.068;2022-10-31T12:59:50;18.40;99.90
15596;DHT22;7898;48.658;9.068;2022-10-31T13:02:22;18.40;99.90
15596;DHT22;7898;48.658;9.068;2022-10-31T13:04:54;18.40;99.90
15596;DHT22;7898;48.658;9.068;2022-10-31T13:07:25;18.30;99.90
15596;DHT22;7898;48.658;9.068;2022-10-31T13:09:58;18.30;99.90
15596;DHT22;7898;48.658;9.068;2022-10-31T13:12:28;18.30;99.90
15596;DHT22;7898;48.658;9.068;2022-10-31T13:14:58;18.30;99.90
15596;DHT22;7898;48.658;9.068;2022-10-31T13:17:30;18.40;99.90
15596;DHT22;7898;48.658;9.068;2022-10-31T13:20:11;18.50;99.90
15596;DHT22;7898;48.658;9.068;2022-10-31T13:22:44;18.60;99.90
15596;DHT22;7898;48.658;9.068;2022-10-31T13:25:15;18.70;99.90
15596;DHT22;7898;48.658;9.068;2022-10-31T13:27:47;18.80;99.90
15596;DHT22;7898;48.658;9.068;2022-10-31T13:30:17;19.10;99.90
15596;DHT22;7898;48.658;9.068;2022-10-31T13:32:51;19.70;99.90
15596;DHT22;7898;48.658;9.068;2022-10-31T13:35:26;20.20;99.90
15596;DHT22;7898;48.658;9.068;2022-10-31T13:40:45;20.80;99.90
15596;DHT22;7898;48.658;9.068;2022-10-31T13:43:25;20.80;99.90
15596;DHT22;7898;48.658;9.068;2022-10-31T13:45:54;20.60;99.90
15596;DHT22;7898;48.658;9.068;2022-10-31T13:48:37;20.50;99.90
15596;DHT22;7898;48.658;9.068;2022-10-31T13:51:08;20.50;99.90
15596;DHT22;7898;48.658;9.068;2022-10-31T13:53:41;20.50;99.90
15596;DHT22;7898;48.658;9.068;2022-10-31T13:56:21;20.60;99.90
15596;DHT22;7898;48.658;9.068;2022-10-31T13:59:15;20.60;99.90
15596;DHT22;7898;48.658;9.068;2022-10-31T14:01:53;20.60;99.90
15596;DHT22;7898;48.658;9.068;2022-10-31T14:04:24;20.70;99.90
15596;DHT22;7898;48.658;9.068;2022-10-31T14:07:06;20.70;99.90
15596;DHT22;7898;48.658;9.068;2022-10-31T14:09:35;20.90;99.90
15596;DHT22;7898;48.658;9.068;2022-10-31T14:12:06;21.20;99.90
15596;DHT22;7898;48.658;9.068;2022-10-31T14:14:42;21.50;99.90
15596;DHT22;7898;48.658;9.068;2022-10-31T14:17:21;21.60;99.90
15596;DHT22;7898;48.658;9.068;2022-10-31T14:20:24;21.80;99.90
15596;DHT22;7898;48.658;9.068;2022-10-31T14:22:51;22.00;99.90
15596;DHT22;7898;48.658;9.068;2022-10-31T14:25:30;22.30;99.90
15596;DHT22;7898;48.658;9.068;2022-10-31T14:27:58;22.60;99.90
15596;DHT22;7898;48.658;9.068;2022-10-31T14:30:27;22.60;99.90
15596;DHT22;7898;48.658;9.068;2022-10-31T14:32:57;22.50;99.90
15596;DHT22;7898;48.658;9.068;2022-10-31T14:35:37;22.50;99.90
15596;DHT22;7898;48.658;9.068;2022-10-31T14:38:30;22.60;99.90
15596;DHT22;7898;48.658;9.068;2022-10-31T14:41:14;22.60;99.90
15596;DHT22;7898;48.658;9.068;2022-10-31T14:44:01;22.50;99.90
15596;DHT22;7898;48.658;9.068;2022-10-31T14:46:41;22.10;99.90
15596;DHT22;7898;48.658;9.068;2022-10-31T14:49:34;21.70;99.90
15596;DHT22;7898;48.658;9.068;2022-10-31T14:52:07;21.60;99.90
15596;DHT22;7898;48.658;9.068;2022-10-31T14:54:38;21.40;99.90
15596;DHT22;7898;48.658;9.068;2022-10-31T14:57:21;21.50;99.90
15596;DHT22;7898;48.658;9.068;2022-10-31T14:59:52;21.80;99.90
15596;DHT22;7898;48.658;9.068;2022-10-31T15:02:26;22.00;99.90
15596;DHT22;7898;48.658;9.068;2022-10-31T15:04:55;22.00;99.90
15596;DHT22;7898;48.658;9.068;2022-10-31T15:07:25;21.50;99.90
15596;DHT22;7898;48.658;9.068;2022-10-31T15:09:56;20.90;99.90
15596;DHT22;7898;48.658;9.068;2022-10-31T15:12:25;20.30;99.90
15596;DHT22;7898;48.658;9.068;2022-10-31T15:14:53;19.80;99.90
15596;DHT22;7898;48.658;9.068;2022-10-31T15:17:20;19.40;99.90
15596;DHT22;7898;48.658;9.068;2022-10-31T15:19:48;18.90;99.90
15596;DHT22;7898;48.658;9.068;2022-10-31T15:22:17;18.50;99.90
15596;DHT22;7898;48.658;9.068;2022-10-31T15:24:47;18.10;99.90
15596;DHT22;7898;48.658;9.068;2022-10-31T15:27:16;17.80;99.90
15596;DHT22;7898;48.658;9.068;2022-10-31T15:29:50;17.60;99.90
15596;DHT22;7898;48.658;9.068;2022-10-31T15:32:19;17.30;99.90
15596;DHT22;7898;48.658;9.068;2022-10-31T15:34:49;17.10;99.90
15596;DHT22;7898;48.658;9.068;2022-10-31T15:37:17;16.80;99.90
15596;DHT22;7898;48.658;9.068;2022-10-31T15:39:47;16.70;99.90
15596;DHT22;7898;48.658;9.068;2022-10-31T15:42:18;16.50;99.90
15596;DHT22;7898;48.658;9.068;2022-10-31T15:44:49;16.30;99.90
15596;DHT22;7898;48.658;9.068;2022-10-31T15:47:21;16.20;99.90
15596;DHT22;7898;48.658;9.068;2022-10-31T15:49:51;16.10;99.90
15596;DHT22;7898;48.658;9.068;2022-10-31T15:52:27;16.00;99.90
15596;DHT22;7898;48.658;9.068;2022-10-31T15:54:59;15.90;99.90
15596;DHT22;7898;48.658;9.068;2022-10-31T15:57:26;15.80;99.90
15596;DHT22;7898;48.658;9.068;2022-10-31T15:59:54;15.80;99.90
15596;DHT22;7898;48.658;9.068;2022-10-31T16:02:23;15.70;99.90
15596;DHT22;7898;48.658;9.068;2022-10-31T16:04:53;15.60;99.90
15596;DHT22;7898;48.658;9.068;2022-10-31T16:07:21;15.60;99.90
15596;DHT22;7898;48.658;9.068;2022-10-31T16:09:50;15.60;99.90
15596;DHT22;7898;48.658;9.068;2022-10-31T16:12:19;15.40;99.90
15596;DHT22;7898;48.658;9.068;2022-10-31T16:14:47;15.40;99.90
15596;DHT22;7898;48.658;9.068;2022-10-31T16:17:16;15.20;99.90
15596;DHT22;7898;48.658;9.068;2022-10-31T16:19:52;15.10;99.90
15596;DHT22;7898;48.658;9.068;2022-10-31T16:22:23;14.90;99.90
15596;DHT22;7898;48.658;9.068;2022-10-31T16:24:55;14.80;99.90
15596;DHT22;7898;48.658;9.068;2022-10-31T16:27:25;14.70;99.90
15596;DHT22;7898;48.658;9.068;2022-10-31T16:29:55;14.50;99.90